createdAt,value
2024-03-03T00:02:49.221Z,993
2024-03-03T00:07:55.330Z,993
2024-03-03T00:13:01.425Z,993
2024-03-03T00:18:07.505Z,993
2024-03-03T00:23:13.620Z,993
2024-03-03T00:28:18.745Z,993
2024-03-03T00:33:24.815Z,992.9
2024-03-03T00:38:30.927Z,992.9
2024-03-03T00:43:37.052Z,992.8
2024-03-03T00:48:43.120Z,992.8
2024-03-03T00:53:49.221Z,992.8
2024-03-03T00:58:55.304Z,992.7
2024-03-03T01:04:01.408Z,992.6
2024-03-03T01:09:07.528Z,992.6
2024-03-03T01:14:13.596Z,992.6
2024-03-03T01:19:19.704Z,992.6
2024-03-03T01:24:25.805Z,992.4
2024-03-03T01:29:31.911Z,992.4
2024-03-03T01:34:37.026Z,992.4
2024-03-03T01:39:43.261Z,992.3
2024-03-03T01:44:49.224Z,992.2
2024-03-03T01:49:55.311Z,992.2
2024-03-03T01:55:01.415Z,992.2
2024-03-03T02:00:07.509Z,992.1
2024-03-03T02:05:13.618Z,992.2
2024-03-03T02:10:19.713Z,992.2
2024-03-03T02:15:25.790Z,992.2
2024-03-03T02:20:31.904Z,992.2
2024-03-03T02:25:38.013Z,992.3
2024-03-03T02:30:44.103Z,992.2
2024-03-03T02:35:50.184Z,992.3
2024-03-03T02:40:55.316Z,992.4
2024-03-03T02:46:01.406Z,992.4
2024-03-03T02:51:07.494Z,992.3
2024-03-03T02:56:13.675Z,992.2
2024-03-03T03:01:19.692Z,992.2
2024-03-03T03:06:25.813Z,992.2
2024-03-03T03:11:31.886Z,992.2
2024-03-03T03:16:37.996Z,992.2
2024-03-03T03:21:44.083Z,992.1
2024-03-03T03:26:50.180Z,992.1
2024-03-03T03:31:56.280Z,992.1
2024-03-03T03:37:02.374Z,992
2024-03-03T03:42:08.463Z,992
2024-03-03T03:47:13.650Z,992
2024-03-03T03:52:19.687Z,992.1
2024-03-03T03:57:25.771Z,992
2024-03-03T04:02:31.887Z,992.1
2024-03-03T04:07:38.161Z,992.1
2024-03-03T04:12:44.081Z,992.1
2024-03-03T04:17:50.164Z,992.1
2024-03-03T04:22:56.262Z,992.1
2024-03-03T04:28:02.379Z,992.1
2024-03-03T04:33:08.467Z,992.1
2024-03-03T04:38:14.563Z,992
2024-03-03T04:43:20.668Z,992
2024-03-03T04:48:26.752Z,992
2024-03-03T04:53:31.869Z,992.1
2024-03-03T04:58:37.969Z,992.2
2024-03-03T05:03:44.075Z,992.1
2024-03-03T05:08:50.152Z,992.2
2024-03-03T05:13:56.241Z,992.1
2024-03-03T05:19:02.373Z,992
2024-03-03T05:24:08.429Z,992
2024-03-03T05:29:14.532Z,992.1
2024-03-03T05:34:20.715Z,992.1
2024-03-03T05:39:26.700Z,992
2024-03-03T05:44:32.795Z,992
2024-03-03T05:49:38.899Z,992
2024-03-03T05:54:45.006Z,992.1
2024-03-03T05:59:50.122Z,992
2024-03-03T06:04:56.201Z,992
2024-03-03T06:10:02.288Z,992.1
2024-03-03T06:15:08.404Z,992.1
2024-03-03T06:20:14.637Z,992.1
2024-03-03T06:25:20.582Z,992.1
2024-03-03T06:30:26.670Z,992
2024-03-03T06:35:32.918Z,992
2024-03-03T06:40:38.870Z,992
2024-03-03T06:45:44.957Z,992.1
2024-03-03T06:50:51.060Z,992.2
2024-03-03T06:55:57.148Z,992.2
2024-03-03T07:01:03.302Z,992.3
2024-03-03T07:06:08.392Z,992.3
2024-03-03T07:11:14.451Z,992.2
2024-03-03T07:16:20.561Z,992.3
2024-03-03T07:21:26.660Z,992.2
2024-03-03T07:26:32.753Z,992.1
2024-03-03T07:31:38.862Z,992.1
2024-03-03T07:36:45.059Z,992
2024-03-03T07:41:51.056Z,992
2024-03-03T07:46:57.145Z,992.1
2024-03-03T07:52:03.242Z,992
2024-03-03T07:57:09.345Z,992
2024-03-03T08:02:15.451Z,992.1
2024-03-03T08:12:27.739Z,992.2
2024-03-03T08:17:32.743Z,992.2
2024-03-03T08:22:38.896Z,992.2
2024-03-03T08:27:44.940Z,992.2
2024-03-03T08:32:51.043Z,992.2
2024-03-03T08:37:57.125Z,992.3
2024-03-03T08:43:03.223Z,992.3
2024-03-03T08:48:09.324Z,992.3
2024-03-03T08:53:15.444Z,992.3
2024-03-03T08:58:21.509Z,992.3
2024-03-03T09:03:27.621Z,992.3
2024-03-03T09:08:33.685Z,992.1
2024-03-03T09:13:39.787Z,992.1
2024-03-03T09:18:45.889Z,992.1
2024-03-03T09:23:51.000Z,992.2
2024-03-03T09:28:57.080Z,992.2
2024-03-03T09:34:03.190Z,992.2
2024-03-03T09:39:09.272Z,992.1
2024-03-03T09:44:15.365Z,992
2024-03-03T09:49:21.455Z,992.1
2024-03-03T09:54:27.568Z,992.2
2024-03-03T09:59:33.664Z,992.1
2024-03-03T10:04:39.737Z,992.2
2024-03-03T10:09:45.835Z,992.2
2024-03-03T10:14:51.942Z,992.2
2024-03-03T10:19:58.030Z,992.2
2024-03-03T10:30:10.221Z,992.1
2024-03-03T10:35:15.331Z,992.1
2024-03-03T10:45:27.709Z,992.1
2024-03-03T10:50:33.617Z,992.2
2024-03-03T10:55:39.708Z,992.2
2024-03-03T11:00:45.868Z,992.1
2024-03-03T11:05:51.908Z,992.1
2024-03-03T11:10:57.982Z,992
2024-03-03T11:16:04.078Z,991.8
2024-03-03T11:21:10.214Z,991.7
2024-03-03T11:26:16.324Z,991.5
2024-03-03T11:31:22.407Z,991.5
2024-03-03T11:36:28.567Z,991.5
2024-03-03T11:41:33.578Z,991.3
2024-03-03T11:46:39.666Z,991.3
2024-03-03T11:51:45.761Z,991.4
2024-03-03T11:56:51.845Z,991.3
2024-03-03T12:01:57.936Z,991.2
2024-03-03T12:07:04.054Z,991.2
2024-03-03T12:12:10.136Z,991.1
2024-03-03T12:17:16.223Z,991.1
2024-03-03T12:22:22.326Z,991.1
2024-03-03T12:27:28.406Z,991.1
2024-03-03T12:32:34.518Z,991
2024-03-03T12:37:40.618Z,991
2024-03-03T12:42:46.704Z,991.1
2024-03-03T12:47:51.806Z,991.1
2024-03-03T12:52:57.922Z,991.1
2024-03-03T12:58:03.992Z,991.1
2024-03-03T13:03:10.091Z,991.2
2024-03-03T13:08:16.228Z,991.1
2024-03-03T13:13:22.292Z,991
2024-03-03T13:18:28.386Z,990.9
2024-03-03T13:23:34.467Z,990.9
2024-03-03T13:28:40.628Z,990.9
2024-03-03T13:33:46.659Z,990.8
2024-03-03T13:38:52.757Z,990.8
2024-03-03T13:43:58.848Z,990.9
2024-03-03T13:49:04.938Z,990.9
2024-03-03T13:54:10.053Z,991
2024-03-03T13:59:16.150Z,990.9
2024-03-03T14:04:22.250Z,990.9
2024-03-03T14:09:28.344Z,990.9
2024-03-03T14:14:34.428Z,990.9
2024-03-03T14:19:40.540Z,990.8
2024-03-03T14:24:46.623Z,990.8
2024-03-03T14:29:52.702Z,990.8
2024-03-03T14:34:58.815Z,990.9
2024-03-03T14:40:04.928Z,990.8
2024-03-03T14:45:11.089Z,990.8
2024-03-03T14:50:17.092Z,990.9
2024-03-03T14:55:23.196Z,990.8
2024-03-03T15:00:28.308Z,990.9
2024-03-03T15:05:34.397Z,990.9
2024-03-03T15:10:40.511Z,990.8
2024-03-03T15:15:46.576Z,990.8
2024-03-03T15:20:52.674Z,990.8
2024-03-03T15:25:58.856Z,990.8
2024-03-03T15:31:04.870Z,990.8
2024-03-03T15:36:10.974Z,990.8
2024-03-03T15:41:17.062Z,990.9
2024-03-03T15:46:23.179Z,990.8
2024-03-03T15:51:29.236Z,990.8
2024-03-03T15:56:35.344Z,990.9
2024-03-03T16:01:41.452Z,990.8
2024-03-03T16:06:46.549Z,990.9
2024-03-03T16:11:52.642Z,990.9
2024-03-03T16:16:58.735Z,990.9
2024-03-03T16:22:04.829Z,990.9
2024-03-03T16:27:09.954Z,990.9
2024-03-03T16:32:16.045Z,991
2024-03-03T16:37:22.135Z,991
2024-03-03T16:42:28.259Z,991.1
2024-03-03T16:47:34.316Z,991.1
2024-03-03T16:52:40.425Z,991.1
2024-03-03T16:57:46.505Z,991.2
2024-03-03T17:02:52.623Z,991.3
2024-03-03T17:07:58.728Z,991.3
2024-03-03T17:13:04.806Z,991.4
2024-03-03T17:18:10.888Z,991.5
2024-03-03T17:23:16.987Z,991.5
2024-03-03T17:28:23.074Z,991.5
2024-03-03T17:33:28.216Z,991.6
2024-03-03T17:38:34.301Z,991.5
2024-03-03T17:43:40.395Z,991.6
2024-03-03T17:48:46.482Z,991.6
2024-03-03T17:53:52.571Z,991.6
2024-03-03T17:58:58.670Z,991.6
2024-03-03T18:04:04.780Z,991.7
2024-03-03T18:09:10.866Z,991.7
2024-03-03T18:14:16.965Z,991.8
2024-03-03T18:19:23.063Z,991.8
2024-03-03T18:24:29.145Z,991.7
2024-03-03T18:29:35.261Z,991.8
2024-03-03T18:34:41.491Z,991.8
2024-03-03T18:39:46.456Z,991.8
2024-03-03T18:44:52.559Z,991.9
2024-03-03T18:49:58.655Z,991.8
2024-03-03T18:55:04.751Z,991.8
2024-03-03T19:00:10.856Z,991.9
2024-03-03T19:05:16.948Z,991.9
2024-03-03T19:10:23.037Z,991.9
2024-03-03T19:15:29.127Z,992
2024-03-03T19:20:35.224Z,991.9
2024-03-03T19:25:41.418Z,991.9
2024-03-03T19:30:47.434Z,991.9
2024-03-03T19:35:53.521Z,991.9
2024-03-03T19:40:59.602Z,991.9
2024-03-03T19:46:04.724Z,991.9
2024-03-03T19:51:10.823Z,992
2024-03-03T19:56:16.919Z,992
2024-03-03T20:01:22.996Z,992
2024-03-03T20:06:29.094Z,991.9
2024-03-03T20:11:35.204Z,992
2024-03-03T20:16:41.316Z,992
2024-03-03T20:21:47.394Z,992.1
2024-03-03T20:26:53.517Z,992.2
2024-03-03T20:31:59.578Z,992.1
2024-03-03T20:37:05.825Z,992.1
2024-03-03T20:42:11.796Z,992.2
2024-03-03T20:47:17.916Z,992.3
2024-03-03T20:52:22.992Z,992.2
2024-03-03T20:57:29.082Z,992.4
2024-03-03T21:02:35.183Z,992.4
2024-03-03T21:07:41.271Z,992.5
2024-03-03T21:12:47.363Z,992.4
2024-03-03T21:17:53.461Z,992.4
2024-03-03T21:22:59.575Z,992.5
2024-03-03T21:28:05.664Z,992.4
2024-03-03T21:33:11.734Z,992.4
2024-03-03T21:38:17.857Z,992.6
2024-03-03T21:43:23.949Z,992.6
2024-03-03T21:48:30.033Z,992.7
2024-03-03T21:53:36.138Z,992.7
2024-03-03T21:58:41.257Z,992.6
2024-03-03T22:03:47.363Z,992.5
2024-03-03T22:08:53.451Z,992.7
2024-03-03T22:13:59.550Z,992.7
2024-03-03T22:19:05.645Z,992.8
2024-03-03T22:24:11.746Z,992.8
2024-03-03T22:29:17.844Z,992.7
2024-03-03T22:34:23.922Z,992.7
2024-03-03T22:39:30.031Z,992.7
2024-03-03T22:44:36.123Z,992.8
2024-03-03T22:49:42.217Z,992.8
2024-03-03T22:54:48.320Z,992.8
2024-03-03T22:59:54.439Z,992.8
2024-03-03T23:04:59.539Z,992.7
2024-03-03T23:10:05.622Z,992.9
2024-03-03T23:15:11.714Z,992.8
2024-03-03T23:20:17.819Z,992.8
2024-03-03T23:25:23.920Z,992.8
2024-03-03T23:30:30.008Z,992.9
2024-03-03T23:35:36.105Z,992.9
2024-03-03T23:40:42.206Z,992.9
2024-03-03T23:45:48.297Z,992.9
2024-03-03T23:50:54.398Z,992.9
2024-03-03T23:56:00.572Z,993
